sensor_id;sensor_type;location;lat;lon;timestamp;P1;durP1;ratioP1;P2;durP2;ratioP2
13441;SDS011;6793;55.662;13.114;2024-02-14T00:00:34;0.20;;;0.20;;
13441;SDS011;6793;55.662;13.114;2024-02-14T00:03:01;0.20;;;0.20;;
13441;SDS011;6793;55.662;13.114;2024-02-14T00:05:29;0.20;;;0.20;;
13441;SDS011;6793;55.662;13.114;2024-02-14T00:07:56;0.30;;;0.30;;
13441;SDS011;6793;55.662;13.114;2024-02-14T00:10:23;0.20;;;0.20;;
13441;SDS011;6793;55.662;13.114;2024-02-14T00:12:51;0.20;;;0.20;;
13441;SDS011;6793;55.662;13.114;2024-02-14T00:15:18;0.30;;;0.30;;
13441;SDS011;6793;55.662;13.114;2024-02-14T00:17:45;0.20;;;0.20;;
13441;SDS011;6793;55.662;13.114;2024-02-14T00:20:13;0.20;;;0.20;;
13441;SDS011;6793;55.662;13.114;2024-02-14T00:22:40;0.30;;;0.30;;
13441;SDS011;6793;55.662;13.114;2024-02-14T00:25:07;0.20;;;0.20;;
13441;SDS011;6793;55.662;13.114;2024-02-14T00:27:35;0.20;;;0.20;;
13441;SDS011;6793;55.662;13.114;2024-02-14T00:30:04;0.20;;;0.20;;
13441;SDS011;6793;55.662;13.114;2024-02-14T00:32:31;0.20;;;0.20;;
13441;SDS011;6793;55.662;13.114;2024-02-14T00:34:58;0.20;;;0.20;;
13441;SDS011;6793;55.662;13.114;2024-02-14T00:37:25;0.20;;;0.20;;
13441;SDS011;6793;55.662;13.114;2024-02-14T00:39:53;0.20;;;0.20;;
13441;SDS011;6793;55.662;13.114;2024-02-14T00:42:22;0.20;;;0.20;;
13441;SDS011;6793;55.662;13.114;2024-02-14T00:44:50;0.20;;;0.20;;
13441;SDS011;6793;55.662;13.114;2024-02-14T00:47:18;0.20;;;0.20;;
13441;SDS011;6793;55.662;13.114;2024-02-14T00:49:45;0.20;;;0.20;;
13441;SDS011;6793;55.662;13.114;2024-02-14T00:52:13;0.20;;;0.20;;
13441;SDS011;6793;55.662;13.114;2024-02-14T00:54:41;0.20;;;0.20;;
13441;SDS011;6793;55.662;13.114;2024-02-14T00:57:08;0.28;;;0.28;;
13441;SDS011;6793;55.662;13.114;2024-02-14T00:59:36;0.20;;;0.20;;
13441;SDS011;6793;55.662;13.114;2024-02-14T01:02:03;0.20;;;0.20;;
13441;SDS011;6793;55.662;13.114;2024-02-14T01:04:32;0.20;;;0.20;;
13441;SDS011;6793;55.662;13.114;2024-02-14T01:07:01;0.20;;;0.20;;
13441;SDS011;6793;55.662;13.114;2024-02-14T01:09:28;0.20;;;0.20;;
13441;SDS011;6793;55.662;13.114;2024-02-14T01:11:55;0.20;;;0.20;;
13441;SDS011;6793;55.662;13.114;2024-02-14T01:14:22;0.20;;;0.20;;
13441;SDS011;6793;55.662;13.114;2024-02-14T01:16:49;0.20;;;0.20;;
13441;SDS011;6793;55.662;13.114;2024-02-14T01:19:16;0.20;;;0.20;;
13441;SDS011;6793;55.662;13.114;2024-02-14T01:21:46;0.20;;;0.20;;
13441;SDS011;6793;55.662;13.114;2024-02-14T01:24:15;0.20;;;0.20;;
13441;SDS011;6793;55.662;13.114;2024-02-14T01:26:42;0.20;;;0.20;;
13441;SDS011;6793;55.662;13.114;2024-02-14T01:29:10;0.20;;;0.20;;
13441;SDS011;6793;55.662;13.114;2024-02-14T01:31:37;0.20;;;0.20;;
13441;SDS011;6793;55.662;13.114;2024-02-14T01:34:04;0.20;;;0.20;;
13441;SDS011;6793;55.662;13.114;2024-02-14T01:36:31;0.20;;;0.20;;
13441;SDS011;6793;55.662;13.114;2024-02-14T01:38:59;0.20;;;0.20;;
13441;SDS011;6793;55.662;13.114;2024-02-14T01:41:26;0.20;;;0.20;;
13441;SDS011;6793;55.662;13.114;2024-02-14T01:43:53;0.20;;;0.20;;
13441;SDS011;6793;55.662;13.114;2024-02-14T01:46:21;0.20;;;0.20;;
13441;SDS011;6793;55.662;13.114;2024-02-14T01:48:48;0.20;;;0.20;;
13441;SDS011;6793;55.662;13.114;2024-02-14T01:51:15;0.20;;;0.20;;
13441;SDS011;6793;55.662;13.114;2024-02-14T01:53:43;0.20;;;0.20;;
13441;SDS011;6793;55.662;13.114;2024-02-14T01:56:12;0.20;;;0.20;;
13441;SDS011;6793;55.662;13.114;2024-02-14T01:58:41;0.20;;;0.20;;
13441;SDS011;6793;55.662;13.114;2024-02-14T02:01:08;0.30;;;0.30;;
13441;SDS011;6793;55.662;13.114;2024-02-14T02:03:35;0.20;;;0.20;;
13441;SDS011;6793;55.662;13.114;2024-02-14T02:06:03;0.20;;;0.20;;
13441;SDS011;6793;55.662;13.114;2024-02-14T02:08:30;0.20;;;0.20;;
13441;SDS011;6793;55.662;13.114;2024-02-14T02:10:57;0.20;;;0.20;;
13441;SDS011;6793;55.662;13.114;2024-02-14T02:13:26;0.20;;;0.20;;
13441;SDS011;6793;55.662;13.114;2024-02-14T02:15:53;0.20;;;0.20;;
13441;SDS011;6793;55.662;13.114;2024-02-14T02:18:20;0.20;;;0.20;;
13441;SDS011;6793;55.662;13.114;2024-02-14T02:20:47;0.20;;;0.20;;
13441;SDS011;6793;55.662;13.114;2024-02-14T02:23:15;0.20;;;0.20;;
13441;SDS011;6793;55.662;13.114;2024-02-14T02:25:43;0.20;;;0.20;;
13441;SDS011;6793;55.662;13.114;2024-02-14T02:28:10;0.20;;;0.20;;
13441;SDS011;6793;55.662;13.114;2024-02-14T02:30:37;0.20;;;0.20;;
13441;SDS011;6793;55.662;13.114;2024-02-14T02:33:04;0.20;;;0.20;;
13441;SDS011;6793;55.662;13.114;2024-02-14T02:35:32;0.20;;;0.20;;
13441;SDS011;6793;55.662;13.114;2024-02-14T02:37:59;0.20;;;0.20;;
13441;SDS011;6793;55.662;13.114;2024-02-14T02:40:28;0.20;;;0.20;;
13441;SDS011;6793;55.662;13.114;2024-02-14T02:42:55;0.20;;;0.20;;
13441;SDS011;6793;55.662;13.114;2024-02-14T02:45:25;0.30;;;0.30;;
13441;SDS011;6793;55.662;13.114;2024-02-14T02:47:53;0.28;;;0.28;;
13441;SDS011;6793;55.662;13.114;2024-02-14T02:50:21;0.20;;;0.20;;
13441;SDS011;6793;55.662;13.114;2024-02-14T02:52:48;0.28;;;0.28;;
13441;SDS011;6793;55.662;13.114;2024-02-14T02:55:15;0.30;;;0.30;;
13441;SDS011;6793;55.662;13.114;2024-02-14T02:57:44;0.20;;;0.20;;
13441;SDS011;6793;55.662;13.114;2024-02-14T03:00:11;0.30;;;0.30;;
13441;SDS011;6793;55.662;13.114;2024-02-14T03:02:39;0.30;;;0.30;;
13441;SDS011;6793;55.662;13.114;2024-02-14T03:05:09;0.30;;;0.30;;
13441;SDS011;6793;55.662;13.114;2024-02-14T03:07:42;0.30;;;0.30;;
13441;SDS011;6793;55.662;13.114;2024-02-14T03:10:11;0.20;;;0.20;;
13441;SDS011;6793;55.662;13.114;2024-02-14T03:12:39;0.20;;;0.20;;
13441;SDS011;6793;55.662;13.114;2024-02-14T03:15:08;0.30;;;0.30;;
13441;SDS011;6793;55.662;13.114;2024-02-14T03:17:36;0.20;;;0.20;;
13441;SDS011;6793;55.662;13.114;2024-02-14T03:20:03;0.30;;;0.30;;
13441;SDS011;6793;55.662;13.114;2024-02-14T03:22:35;0.30;;;0.30;;
13441;SDS011;6793;55.662;13.114;2024-02-14T03:25:02;0.30;;;0.30;;
13441;SDS011;6793;55.662;13.114;2024-02-14T03:27:30;0.30;;;0.30;;
13441;SDS011;6793;55.662;13.114;2024-02-14T03:29:57;0.30;;;0.30;;
13441;SDS011;6793;55.662;13.114;2024-02-14T03:32:29;0.30;;;0.30;;
13441;SDS011;6793;55.662;13.114;2024-02-14T03:34:56;0.30;;;0.30;;
13441;SDS011;6793;55.662;13.114;2024-02-14T03:37:23;0.30;;;0.30;;
13441;SDS011;6793;55.662;13.114;2024-02-14T03:39:50;0.30;;;0.30;;
13441;SDS011;6793;55.662;13.114;2024-02-14T03:42:17;0.30;;;0.30;;
13441;SDS011;6793;55.662;13.114;2024-02-14T03:44:44;0.30;;;0.30;;
13441;SDS011;6793;55.662;13.114;2024-02-14T03:47:12;0.30;;;0.30;;
13441;SDS011;6793;55.662;13.114;2024-02-14T03:49:40;0.30;;;0.30;;
13441;SDS011;6793;55.662;13.114;2024-02-14T03:52:07;0.30;;;0.30;;
13441;SDS011;6793;55.662;13.114;2024-02-14T03:54:36;0.30;;;0.30;;
13441;SDS011;6793;55.662;13.114;2024-02-14T03:57:03;0.30;;;0.30;;
13441;SDS011;6793;55.662;13.114;2024-02-14T03:59:35;0.30;;;0.30;;
13441;SDS011;6793;55.662;13.114;2024-02-14T04:02:04;0.20;;;0.20;;
13441;SDS011;6793;55.662;13.114;2024-02-14T04:04:32;0.30;;;0.30;;
13441;SDS011;6793;55.662;13.114;2024-02-14T04:07:01;0.20;;;0.20;;
13441;SDS011;6793;55.662;13.114;2024-02-14T04:09:28;0.28;;;0.28;;
13441;SDS011;6793;55.662;13.114;2024-02-14T04:11:55;0.30;;;0.30;;
13441;SDS011;6793;55.662;13.114;2024-02-14T04:14:22;0.20;;;0.20;;
13441;SDS011;6793;55.662;13.114;2024-02-14T04:16:50;0.30;;;0.30;;
13441;SDS011;6793;55.662;13.114;2024-02-14T04:19:17;0.30;;;0.30;;
13441;SDS011;6793;55.662;13.114;2024-02-14T04:21:44;0.30;;;0.30;;
13441;SDS011;6793;55.662;13.114;2024-02-14T04:24:12;0.20;;;0.20;;
13441;SDS011;6793;55.662;13.114;2024-02-14T04:26:39;0.20;;;0.20;;
13441;SDS011;6793;55.662;13.114;2024-02-14T04:29:07;0.28;;;0.28;;
13441;SDS011;6793;55.662;13.114;2024-02-14T04:31:34;0.30;;;0.30;;
13441;SDS011;6793;55.662;13.114;2024-02-14T04:34:02;0.30;;;0.30;;
13441;SDS011;6793;55.662;13.114;2024-02-14T04:36:30;0.30;;;0.30;;
13441;SDS011;6793;55.662;13.114;2024-02-14T04:38:57;0.30;;;0.30;;
13441;SDS011;6793;55.662;13.114;2024-02-14T04:41:26;0.25;;;0.25;;
13441;SDS011;6793;55.662;13.114;2024-02-14T04:43:53;0.30;;;0.30;;
13441;SDS011;6793;55.662;13.114;2024-02-14T04:46:20;0.30;;;0.30;;
13441;SDS011;6793;55.662;13.114;2024-02-14T04:48:47;0.20;;;0.20;;
13441;SDS011;6793;55.662;13.114;2024-02-14T04:51:14;0.30;;;0.30;;
13441;SDS011;6793;55.662;13.114;2024-02-14T04:53:41;0.25;;;0.25;;
13441;SDS011;6793;55.662;13.114;2024-02-14T04:56:08;0.20;;;0.20;;
13441;SDS011;6793;55.662;13.114;2024-02-14T04:58:37;0.30;;;0.30;;
13441;SDS011;6793;55.662;13.114;2024-02-14T05:01:04;0.30;;;0.30;;
13441;SDS011;6793;55.662;13.114;2024-02-14T05:03:32;0.30;;;0.30;;
13441;SDS011;6793;55.662;13.114;2024-02-14T05:05:59;0.20;;;0.20;;
13441;SDS011;6793;55.662;13.114;2024-02-14T05:08:27;0.30;;;0.30;;
13441;SDS011;6793;55.662;13.114;2024-02-14T05:10:54;0.25;;;0.25;;
13441;SDS011;6793;55.662;13.114;2024-02-14T05:13:21;0.30;;;0.30;;
13441;SDS011;6793;55.662;13.114;2024-02-14T05:15:50;0.28;;;0.28;;
13441;SDS011;6793;55.662;13.114;2024-02-14T05:18:17;0.20;;;0.20;;
13441;SDS011;6793;55.662;13.114;2024-02-14T05:20:44;0.20;;;0.20;;
13441;SDS011;6793;55.662;13.114;2024-02-14T05:23:11;0.30;;;0.30;;
13441;SDS011;6793;55.662;13.114;2024-02-14T05:25:38;0.30;;;0.30;;
13441;SDS011;6793;55.662;13.114;2024-02-14T05:28:05;0.30;;;0.30;;
13441;SDS011;6793;55.662;13.114;2024-02-14T05:30:38;0.30;;;0.30;;
13441;SDS011;6793;55.662;13.114;2024-02-14T05:33:06;0.30;;;0.30;;
13441;SDS011;6793;55.662;13.114;2024-02-14T05:35:34;0.25;;;0.25;;
13441;SDS011;6793;55.662;13.114;2024-02-14T05:38:01;0.30;;;0.30;;
13441;SDS011;6793;55.662;13.114;2024-02-14T05:40:29;0.28;;;0.28;;
13441;SDS011;6793;55.662;13.114;2024-02-14T05:42:56;0.30;;;0.30;;
13441;SDS011;6793;55.662;13.114;2024-02-14T05:45:23;0.30;;;0.30;;
13441;SDS011;6793;55.662;13.114;2024-02-14T05:47:50;0.30;;;0.30;;
13441;SDS011;6793;55.662;13.114;2024-02-14T05:50:19;0.30;;;0.30;;
13441;SDS011;6793;55.662;13.114;2024-02-14T05:52:46;0.30;;;0.30;;
13441;SDS011;6793;55.662;13.114;2024-02-14T05:55:13;0.30;;;0.30;;
13441;SDS011;6793;55.662;13.114;2024-02-14T05:57:40;0.20;;;0.20;;
13441;SDS011;6793;55.662;13.114;2024-02-14T06:00:08;0.30;;;0.30;;
13441;SDS011;6793;55.662;13.114;2024-02-14T06:02:35;0.25;;;0.25;;
13441;SDS011;6793;55.662;13.114;2024-02-14T06:05:03;0.30;;;0.30;;
13441;SDS011;6793;55.662;13.114;2024-02-14T06:07:31;0.30;;;0.30;;
13441;SDS011;6793;55.662;13.114;2024-02-14T06:09:58;0.30;;;0.30;;
13441;SDS011;6793;55.662;13.114;2024-02-14T06:12:25;0.30;;;0.30;;
13441;SDS011;6793;55.662;13.114;2024-02-14T06:14:52;0.30;;;0.30;;
13441;SDS011;6793;55.662;13.114;2024-02-14T06:17:19;0.30;;;0.30;;
13441;SDS011;6793;55.662;13.114;2024-02-14T06:19:47;0.30;;;0.30;;
13441;SDS011;6793;55.662;13.114;2024-02-14T06:22:14;0.30;;;0.30;;
13441;SDS011;6793;55.662;13.114;2024-02-14T06:24:42;0.30;;;0.30;;
13441;SDS011;6793;55.662;13.114;2024-02-14T06:27:09;0.20;;;0.20;;
13441;SDS011;6793;55.662;13.114;2024-02-14T06:29:38;0.20;;;0.20;;
13441;SDS011;6793;55.662;13.114;2024-02-14T06:32:08;0.30;;;0.30;;
13441;SDS011;6793;55.662;13.114;2024-02-14T06:34:35;0.30;;;0.30;;
13441;SDS011;6793;55.662;13.114;2024-02-14T06:37:02;0.30;;;0.30;;
13441;SDS011;6793;55.662;13.114;2024-02-14T06:39:30;0.30;;;0.30;;
13441;SDS011;6793;55.662;13.114;2024-02-14T06:41:58;0.30;;;0.30;;
13441;SDS011;6793;55.662;13.114;2024-02-14T06:44:25;0.20;;;0.20;;
13441;SDS011;6793;55.662;13.114;2024-02-14T06:46:52;0.30;;;0.30;;
13441;SDS011;6793;55.662;13.114;2024-02-14T06:49:19;0.30;;;0.30;;
13441;SDS011;6793;55.662;13.114;2024-02-14T06:51:46;0.22;;;0.22;;
13441;SDS011;6793;55.662;13.114;2024-02-14T06:54:13;0.20;;;0.20;;
13441;SDS011;6793;55.662;13.114;2024-02-14T06:56:42;0.30;;;0.30;;
13441;SDS011;6793;55.662;13.114;2024-02-14T06:59:10;0.30;;;0.30;;
13441;SDS011;6793;55.662;13.114;2024-02-14T07:01:37;0.30;;;0.30;;
13441;SDS011;6793;55.662;13.114;2024-02-14T07:04:05;0.30;;;0.30;;
13441;SDS011;6793;55.662;13.114;2024-02-14T07:06:32;0.30;;;0.30;;
13441;SDS011;6793;55.662;13.114;2024-02-14T07:08:59;0.28;;;0.28;;
13441;SDS011;6793;55.662;13.114;2024-02-14T07:11:26;0.30;;;0.30;;
13441;SDS011;6793;55.662;13.114;2024-02-14T07:13:53;0.28;;;0.28;;
13441;SDS011;6793;55.662;13.114;2024-02-14T07:16:21;0.30;;;0.30;;
13441;SDS011;6793;55.662;13.114;2024-02-14T07:18:49;0.30;;;0.30;;
13441;SDS011;6793;55.662;13.114;2024-02-14T07:21:16;0.30;;;0.30;;
13441;SDS011;6793;55.662;13.114;2024-02-14T07:23:43;0.30;;;0.30;;
13441;SDS011;6793;55.662;13.114;2024-02-14T07:26:10;0.30;;;0.30;;
13441;SDS011;6793;55.662;13.114;2024-02-14T07:28:37;0.25;;;0.25;;
13441;SDS011;6793;55.662;13.114;2024-02-14T07:31:04;0.30;;;0.30;;
13441;SDS011;6793;55.662;13.114;2024-02-14T07:33:33;0.30;;;0.30;;
13441;SDS011;6793;55.662;13.114;2024-02-14T07:36:00;0.30;;;0.30;;
13441;SDS011;6793;55.662;13.114;2024-02-14T07:38:27;0.30;;;0.30;;
13441;SDS011;6793;55.662;13.114;2024-02-14T07:40:54;0.30;;;0.30;;
13441;SDS011;6793;55.662;13.114;2024-02-14T07:43:21;0.20;;;0.20;;
13441;SDS011;6793;55.662;13.114;2024-02-14T07:45:48;0.30;;;0.30;;
13441;SDS011;6793;55.662;13.114;2024-02-14T07:48:15;0.30;;;0.30;;
13441;SDS011;6793;55.662;13.114;2024-02-14T07:50:44;0.20;;;0.20;;
13441;SDS011;6793;55.662;13.114;2024-02-14T07:53:11;0.20;;;0.20;;
13441;SDS011;6793;55.662;13.114;2024-02-14T07:55:38;0.20;;;0.20;;
13441;SDS011;6793;55.662;13.114;2024-02-14T07:58:05;0.20;;;0.20;;
13441;SDS011;6793;55.662;13.114;2024-02-14T08:00:32;0.20;;;0.20;;
13441;SDS011;6793;55.662;13.114;2024-02-14T08:02:59;0.20;;;0.20;;
13441;SDS011;6793;55.662;13.114;2024-02-14T08:05:28;0.20;;;0.20;;
13441;SDS011;6793;55.662;13.114;2024-02-14T08:07:57;0.20;;;0.20;;
13441;SDS011;6793;55.662;13.114;2024-02-14T08:10:24;0.20;;;0.20;;
13441;SDS011;6793;55.662;13.114;2024-02-14T08:12:51;0.20;;;0.20;;
13441;SDS011;6793;55.662;13.114;2024-02-14T08:15:18;0.20;;;0.20;;
13441;SDS011;6793;55.662;13.114;2024-02-14T08:17:46;0.20;;;0.20;;
13441;SDS011;6793;55.662;13.114;2024-02-14T08:20:13;0.20;;;0.20;;
13441;SDS011;6793;55.662;13.114;2024-02-14T08:22:40;0.20;;;0.20;;
13441;SDS011;6793;55.662;13.114;2024-02-14T08:25:08;0.20;;;0.20;;
13441;SDS011;6793;55.662;13.114;2024-02-14T08:27:36;0.20;;;0.20;;
13441;SDS011;6793;55.662;13.114;2024-02-14T08:30:04;0.20;;;0.20;;
13441;SDS011;6793;55.662;13.114;2024-02-14T08:32:31;0.20;;;0.20;;
13441;SDS011;6793;55.662;13.114;2024-02-14T08:34:58;0.20;;;0.20;;
13441;SDS011;6793;55.662;13.114;2024-02-14T08:37:26;0.20;;;0.20;;
13441;SDS011;6793;55.662;13.114;2024-02-14T08:39:53;0.20;;;0.20;;
13441;SDS011;6793;55.662;13.114;2024-02-14T08:42:21;0.20;;;0.20;;
13441;SDS011;6793;55.662;13.114;2024-02-14T08:44:48;0.20;;;0.20;;
13441;SDS011;6793;55.662;13.114;2024-02-14T08:47:16;0.20;;;0.20;;
13441;SDS011;6793;55.662;13.114;2024-02-14T08:49:43;0.20;;;0.20;;
13441;SDS011;6793;55.662;13.114;2024-02-14T08:52:10;0.20;;;0.20;;
13441;SDS011;6793;55.662;13.114;2024-02-14T08:54:37;0.20;;;0.20;;
13441;SDS011;6793;55.662;13.114;2024-02-14T08:57:04;0.20;;;0.20;;
13441;SDS011;6793;55.662;13.114;2024-02-14T08:59:33;0.20;;;0.20;;
13441;SDS011;6793;55.662;13.114;2024-02-14T09:02:00;0.20;;;0.20;;
13441;SDS011;6793;55.662;13.114;2024-02-14T09:04:27;0.20;;;0.20;;
13441;SDS011;6793;55.662;13.114;2024-02-14T09:06:54;0.20;;;0.20;;
13441;SDS011;6793;55.662;13.114;2024-02-14T09:09:21;0.20;;;0.20;;
13441;SDS011;6793;55.662;13.114;2024-02-14T09:11:49;0.20;;;0.20;;
13441;SDS011;6793;55.662;13.114;2024-02-14T09:14:16;0.20;;;0.20;;
13441;SDS011;6793;55.662;13.114;2024-02-14T09:16:44;0.20;;;0.20;;
13441;SDS011;6793;55.662;13.114;2024-02-14T09:19:11;0.20;;;0.20;;
13441;SDS011;6793;55.662;13.114;2024-02-14T09:21:38;0.20;;;0.20;;
13441;SDS011;6793;55.662;13.114;2024-02-14T09:24:05;0.20;;;0.20;;
13441;SDS011;6793;55.662;13.114;2024-02-14T09:26:32;0.20;;;0.20;;
13441;SDS011;6793;55.662;13.114;2024-02-14T09:28:59;0.20;;;0.20;;
13441;SDS011;6793;55.662;13.114;2024-02-14T09:31:27;0.20;;;0.20;;
13441;SDS011;6793;55.662;13.114;2024-02-14T09:33:55;0.20;;;0.20;;
13441;SDS011;6793;55.662;13.114;2024-02-14T09:36:23;0.20;;;0.20;;
13441;SDS011;6793;55.662;13.114;2024-02-14T09:38:50;0.30;;;0.30;;
13441;SDS011;6793;55.662;13.114;2024-02-14T09:41:20;0.28;;;0.28;;
13441;SDS011;6793;55.662;13.114;2024-02-14T09:43:48;0.20;;;0.20;;
13441;SDS011;6793;55.662;13.114;2024-02-14T09:46:15;0.28;;;0.28;;
13441;SDS011;6793;55.662;13.114;2024-02-14T09:48:43;0.20;;;0.20;;
13441;SDS011;6793;55.662;13.114;2024-02-14T09:51:11;0.20;;;0.20;;
13441;SDS011;6793;55.662;13.114;2024-02-14T09:53:39;0.30;;;0.30;;
13441;SDS011;6793;55.662;13.114;2024-02-14T09:56:08;0.28;;;0.28;;
13441;SDS011;6793;55.662;13.114;2024-02-14T09:58:36;0.20;;;0.20;;
13441;SDS011;6793;55.662;13.114;2024-02-14T10:01:03;0.20;;;0.20;;
13441;SDS011;6793;55.662;13.114;2024-02-14T10:03:31;0.30;;;0.30;;
13441;SDS011;6793;55.662;13.114;2024-02-14T10:05:58;0.30;;;0.30;;
13441;SDS011;6793;55.662;13.114;2024-02-14T10:08:27;0.20;;;0.20;;
13441;SDS011;6793;55.662;13.114;2024-02-14T10:10:56;0.30;;;0.30;;
13441;SDS011;6793;55.662;13.114;2024-02-14T10:13:26;0.30;;;0.30;;
13441;SDS011;6793;55.662;13.114;2024-02-14T10:15:53;0.30;;;0.30;;
13441;SDS011;6793;55.662;13.114;2024-02-14T10:18:20;0.30;;;0.30;;
13441;SDS011;6793;55.662;13.114;2024-02-14T10:20:54;0.30;;;0.30;;
13441;SDS011;6793;55.662;13.114;2024-02-14T10:23:21;0.30;;;0.30;;
13441;SDS011;6793;55.662;13.114;2024-02-14T10:25:50;0.30;;;0.30;;
13441;SDS011;6793;55.662;13.114;2024-02-14T10:28:17;0.22;;;0.22;;
13441;SDS011;6793;55.662;13.114;2024-02-14T10:30:48;0.20;;;0.20;;
13441;SDS011;6793;55.662;13.114;2024-02-14T10:33:15;0.30;;;0.30;;
13441;SDS011;6793;55.662;13.114;2024-02-14T10:35:44;0.20;;;0.20;;
13441;SDS011;6793;55.662;13.114;2024-02-14T10:38:11;0.20;;;0.20;;
13441;SDS011;6793;55.662;13.114;2024-02-14T10:40:38;0.25;;;0.25;;
13441;SDS011;6793;55.662;13.114;2024-02-14T10:43:09;0.22;;;0.22;;
13441;SDS011;6793;55.662;13.114;2024-02-14T10:45:36;0.20;;;0.20;;
13441;SDS011;6793;55.662;13.114;2024-02-14T10:48:04;0.30;;;0.30;;
13441;SDS011;6793;55.662;13.114;2024-02-14T10:50:32;0.30;;;0.30;;
13441;SDS011;6793;55.662;13.114;2024-02-14T10:53:02;0.30;;;0.30;;
13441;SDS011;6793;55.662;13.114;2024-02-14T10:55:30;0.22;;;0.22;;
13441;SDS011;6793;55.662;13.114;2024-02-14T10:57:57;0.30;;;0.30;;
13441;SDS011;6793;55.662;13.114;2024-02-14T11:00:26;0.30;;;0.30;;
13441;SDS011;6793;55.662;13.114;2024-02-14T11:02:55;0.30;;;0.30;;
13441;SDS011;6793;55.662;13.114;2024-02-14T11:05:22;0.30;;;0.30;;
13441;SDS011;6793;55.662;13.114;2024-02-14T11:07:50;0.32;;;0.32;;
13441;SDS011;6793;55.662;13.114;2024-02-14T11:10:18;0.30;;;0.30;;
13441;SDS011;6793;55.662;13.114;2024-02-14T11:12:46;0.30;;;0.30;;
13441;SDS011;6793;55.662;13.114;2024-02-14T11:15:16;0.30;;;0.30;;
13441;SDS011;6793;55.662;13.114;2024-02-14T11:17:45;0.30;;;0.30;;
13441;SDS011;6793;55.662;13.114;2024-02-14T11:20:14;0.30;;;0.30;;
13441;SDS011;6793;55.662;13.114;2024-02-14T11:22:49;0.30;;;0.30;;
13441;SDS011;6793;55.662;13.114;2024-02-14T11:25:17;0.30;;;0.30;;
13441;SDS011;6793;55.662;13.114;2024-02-14T11:27:45;0.30;;;0.30;;
13441;SDS011;6793;55.662;13.114;2024-02-14T11:30:12;0.30;;;0.30;;
13441;SDS011;6793;55.662;13.114;2024-02-14T11:32:40;0.30;;;0.30;;
13441;SDS011;6793;55.662;13.114;2024-02-14T11:35:12;0.30;;;0.30;;
13441;SDS011;6793;55.662;13.114;2024-02-14T11:37:39;0.20;;;0.20;;
13441;SDS011;6793;55.662;13.114;2024-02-14T11:40:06;0.30;;;0.30;;
13441;SDS011;6793;55.662;13.114;2024-02-14T11:42:34;0.30;;;0.30;;
13441;SDS011;6793;55.662;13.114;2024-02-14T11:45:02;0.30;;;0.30;;
13441;SDS011;6793;55.662;13.114;2024-02-14T11:47:29;0.30;;;0.30;;
13441;SDS011;6793;55.662;13.114;2024-02-14T11:49:56;0.30;;;0.30;;
13441;SDS011;6793;55.662;13.114;2024-02-14T11:52:25;0.20;;;0.20;;
13441;SDS011;6793;55.662;13.114;2024-02-14T11:54:55;0.30;;;0.30;;
13441;SDS011;6793;55.662;13.114;2024-02-14T11:57:25;0.30;;;0.30;;
13441;SDS011;6793;55.662;13.114;2024-02-14T11:59:52;0.30;;;0.30;;
13441;SDS011;6793;55.662;13.114;2024-02-14T12:02:20;0.30;;;0.30;;
13441;SDS011;6793;55.662;13.114;2024-02-14T12:04:47;0.30;;;0.30;;
13441;SDS011;6793;55.662;13.114;2024-02-14T12:07:15;0.30;;;0.30;;
13441;SDS011;6793;55.662;13.114;2024-02-14T12:09:44;0.30;;;0.30;;
13441;SDS011;6793;55.662;13.114;2024-02-14T12:12:12;0.30;;;0.30;;
13441;SDS011;6793;55.662;13.114;2024-02-14T12:14:40;0.22;;;0.22;;
13441;SDS011;6793;55.662;13.114;2024-02-14T12:17:08;0.22;;;0.22;;
13441;SDS011;6793;55.662;13.114;2024-02-14T12:19:36;0.30;;;0.30;;
13441;SDS011;6793;55.662;13.114;2024-02-14T12:22:09;0.20;;;0.20;;
13441;SDS011;6793;55.662;13.114;2024-02-14T12:24:42;0.30;;;0.30;;
13441;SDS011;6793;55.662;13.114;2024-02-14T12:27:11;0.30;;;0.30;;
13441;SDS011;6793;55.662;13.114;2024-02-14T12:29:38;0.30;;;0.30;;
13441;SDS011;6793;55.662;13.114;2024-02-14T12:32:05;0.30;;;0.30;;
13441;SDS011;6793;55.662;13.114;2024-02-14T12:34:32;0.30;;;0.30;;
13441;SDS011;6793;55.662;13.114;2024-02-14T12:37:00;0.30;;;0.30;;
13441;SDS011;6793;55.662;13.114;2024-02-14T12:39:28;0.30;;;0.30;;
13441;SDS011;6793;55.662;13.114;2024-02-14T12:41:55;0.30;;;0.30;;
13441;SDS011;6793;55.662;13.114;2024-02-14T12:44:24;0.30;;;0.30;;
13441;SDS011;6793;55.662;13.114;2024-02-14T12:46:51;0.30;;;0.30;;
13441;SDS011;6793;55.662;13.114;2024-02-14T12:49:19;0.40;;;0.40;;
13441;SDS011;6793;55.662;13.114;2024-02-14T12:51:47;0.40;;;0.40;;
13441;SDS011;6793;55.662;13.114;2024-02-14T12:54:15;0.30;;;0.30;;
13441;SDS011;6793;55.662;13.114;2024-02-14T12:56:42;0.40;;;0.40;;
13441;SDS011;6793;55.662;13.114;2024-02-14T12:59:10;0.40;;;0.40;;
13441;SDS011;6793;55.662;13.114;2024-02-14T13:01:44;0.40;;;0.40;;
13441;SDS011;6793;55.662;13.114;2024-02-14T13:04:12;0.30;;;0.30;;
13441;SDS011;6793;55.662;13.114;2024-02-14T13:06:41;0.40;;;0.40;;
13441;SDS011;6793;55.662;13.114;2024-02-14T13:09:08;0.32;;;0.32;;
13441;SDS011;6793;55.662;13.114;2024-02-14T13:11:36;0.40;;;0.40;;
13441;SDS011;6793;55.662;13.114;2024-02-14T13:14:03;0.40;;;0.40;;
13441;SDS011;6793;55.662;13.114;2024-02-14T13:16:30;0.30;;;0.30;;
13441;SDS011;6793;55.662;13.114;2024-02-14T13:18:59;0.40;;;0.40;;
13441;SDS011;6793;55.662;13.114;2024-02-14T13:21:26;0.32;;;0.32;;
13441;SDS011;6793;55.662;13.114;2024-02-14T13:23:53;0.30;;;0.30;;
13441;SDS011;6793;55.662;13.114;2024-02-14T13:26:22;0.30;;;0.30;;
13441;SDS011;6793;55.662;13.114;2024-02-14T13:28:49;0.40;;;0.40;;
13441;SDS011;6793;55.662;13.114;2024-02-14T13:31:16;0.40;;;0.40;;
13441;SDS011;6793;55.662;13.114;2024-02-14T13:33:43;0.40;;;0.40;;
13441;SDS011;6793;55.662;13.114;2024-02-14T13:36:12;0.40;;;0.40;;
13441;SDS011;6793;55.662;13.114;2024-02-14T13:38:40;0.40;;;0.40;;
13441;SDS011;6793;55.662;13.114;2024-02-14T13:41:09;0.40;;;0.40;;
13441;SDS011;6793;55.662;13.114;2024-02-14T13:43:37;0.40;;;0.40;;
13441;SDS011;6793;55.662;13.114;2024-02-14T13:46:04;0.40;;;0.40;;
13441;SDS011;6793;55.662;13.114;2024-02-14T13:48:31;0.40;;;0.40;;
13441;SDS011;6793;55.662;13.114;2024-02-14T13:50:59;0.35;;;0.35;;
13441;SDS011;6793;55.662;13.114;2024-02-14T13:53:28;0.30;;;0.30;;
13441;SDS011;6793;55.662;13.114;2024-02-14T13:55:55;0.40;;;0.40;;
13441;SDS011;6793;55.662;13.114;2024-02-14T13:58:22;0.40;;;0.40;;
13441;SDS011;6793;55.662;13.114;2024-02-14T14:00:49;0.32;;;0.32;;
13441;SDS011;6793;55.662;13.114;2024-02-14T14:03:17;0.40;;;0.40;;
13441;SDS011;6793;55.662;13.114;2024-02-14T14:05:44;0.40;;;0.40;;
13441;SDS011;6793;55.662;13.114;2024-02-14T14:08:11;0.40;;;0.40;;
13441;SDS011;6793;55.662;13.114;2024-02-14T14:10:40;0.40;;;0.40;;
13441;SDS011;6793;55.662;13.114;2024-02-14T14:13:09;0.40;;;0.40;;
13441;SDS011;6793;55.662;13.114;2024-02-14T14:15:39;0.40;;;0.40;;
13441;SDS011;6793;55.662;13.114;2024-02-14T14:18:07;0.40;;;0.40;;
13441;SDS011;6793;55.662;13.114;2024-02-14T14:20:35;0.30;;;0.30;;
13441;SDS011;6793;55.662;13.114;2024-02-14T14:23:02;0.40;;;0.40;;
13441;SDS011;6793;55.662;13.114;2024-02-14T14:25:30;0.40;;;0.40;;
13441;SDS011;6793;55.662;13.114;2024-02-14T14:28:01;0.40;;;0.40;;
13441;SDS011;6793;55.662;13.114;2024-02-14T14:30:28;0.30;;;0.30;;
13441;SDS011;6793;55.662;13.114;2024-02-14T14:32:55;0.40;;;0.40;;
13441;SDS011;6793;55.662;13.114;2024-02-14T14:35:22;0.40;;;0.40;;
13441;SDS011;6793;55.662;13.114;2024-02-14T14:37:49;0.40;;;0.40;;
13441;SDS011;6793;55.662;13.114;2024-02-14T14:40:19;0.40;;;0.40;;
13441;SDS011;6793;55.662;13.114;2024-02-14T14:42:47;0.40;;;0.40;;
13441;SDS011;6793;55.662;13.114;2024-02-14T14:45:16;0.40;;;0.40;;
13441;SDS011;6793;55.662;13.114;2024-02-14T14:47:43;0.40;;;0.40;;
13441;SDS011;6793;55.662;13.114;2024-02-14T14:50:10;0.40;;;0.40;;